AirNav   Air Wisconsin Up To $57,000 Bonus
 
 1240 users online  

KDRP Delta Regional Airport
Colt, Arkansas, USA

GOING TO COLT?


FAA INFORMATION EFFECTIVE 05 DECEMBER 2019

Location

FAA Identifier: DRP
Lat/Long: 35-07-12.1880N 090-49-35.4050W
35-07.203133N 090-49.590083W
35.1200522,-90.8265014
(estimated)
Elevation: 238.8 ft. / 72.8 m (surveyed)
Variation: 01W (2015)
From city: 1 mile SW of COLT, AR
Time zone: UTC -6 (UTC -5 during Daylight Saving Time)
Zip code: 72326

Airport Operations

Airport use: Open to the public
Activation date: 04/2014
Control tower: no
ARTCC: MEMPHIS CENTER
FSS: JONESBORO FLIGHT SERVICE STATION
NOTAMs facility: JBR (NOTAM-D service available)
Attendance: UNATNDD
Wind indicator: lighted
Segmented circle: yes
Lights: ACTVT HIRL RY 18/36; REIL RYS 18 & 36 - CTAF. PAPI RYS 18 & 36 OPERS CONTINUOUSLY.
Beacon: white-green (lighted land airport)
Operates sunset to sunrise.

Airport Communications

CTAF/UNICOM: 123.0
  • APCH/DEP SVC PRVDD BY MEMPHIS ARTCC ON FREQS 135.3/335.8 (BRINKLEY RCAG).

Nearby radio navigation aids

VOR radial/distance  VOR name  Freq  Var
GQEr227/21.8GILMORE VOR/DME113.0004E
UJMr346/33.5MARVELL VOR/DME109.6001E

Airport Services

Fuel available: 100LL
FUEL AVBL SELF SERVE AFT HRS WITH CREDIT CARD
Parking: tiedowns

Runway Information

Runway 18/36

Dimensions: 5003 x 75 ft. / 1525 x 23 m
Surface: asphalt, in good condition
Weight bearing capacity: 
Single wheel: 30.0
Runway edge lights: high intensity
RUNWAY 18  RUNWAY 36
Latitude: 35-07.615412N35-06.790852N
Longitude: 090-49.584142W090-49.596037W
Elevation: 238.8 ft.228.7 ft.
Traffic pattern: leftleft
Runway heading: 182 magnetic, 181 true002 magnetic, 001 true
Markings: precision, in good conditionprecision, in good condition
Visual slope indicator: 2-light PAPI on left (3.00 degrees glide path)2-light PAPI on left (3.00 degrees glide path)
Runway end identifier lights: yesyes
Touchdown point: yes, no lightsyes, no lights

Airport Ownership and Management from official FAA records

Ownership: Publicly-owned
Owner: DELTA REGIONAL AIRPORT AUTHORITY
PO BOX 248, 8535 MAIN STREET
COLT, AR 72326
Phone 870-208-6607
Manager: JOHN KERR
21 CR 703
WYNNE, AR 72396
Phone 870-208-6607

Airport Operational Statistics

Aircraft based on the field: 7
Single engine airplanes: 6
Multi engine airplanes: 1
    
Aircraft operations: avg 40/week *
86% local general aviation
14% transient general aviation
* for 12-month period ending 30 April 2017

Additional Remarks

FOR CD CTC MEMPHIS ARTCC AT 901-368-8453.

Instrument Procedures

NOTE: All procedures below are presented as PDF files. If you need a reader for these files, you should download the free Adobe Reader.

NOT FOR NAVIGATION. Please procure official charts for flight.
FAA instrument procedures published for use from 05 December 2019 at 0900Z to 02 January 2020 at 0900Z.

 
IAPs - Instrument Approach Procedures
RNAV (GPS) RWY 18 **CHANGED**   download (167KB)
RNAV (GPS) RWY 36 **CHANGED**   download (165KB)
NOTE: Special Take-Off Minimums/Departure Procedures apply   download

Other nearby airports with instrument procedures:

6M7 - Marianna/Lee County Airport-Steve Edwards Field (20 nm S)
M36 - Frank Federer Memorial Airport (22 nm SW)
M60 - Woodruff County Airport (24 nm NW)
KAWM - West Memphis Municipal Airport (29 nm E)
KHEE - Thompson-Robbins Airport (33 nm S)
 
Loc | Ops | Rwys | IFR | FBO | Links
Com | Nav | Svcs | Stats | Notes
Aerial photo
No photo
 
Airport distance calculator
Flying to Delta Regional Airport? Find the distance to fly.

From to KDRP

Sunrise and sunset
Times for 11-Dec-2019
 Local
(UTC-6)
 Zulu
(UTC)
Morning civil twilight06:3412:34
Sunrise07:0213:02
Sunset16:5122:51
Evening civil twilight17:1923:19

Current date and time
Zulu (UTC)  11-Dec-2019 20:46:01
Local (UTC-6)  11-Dec-2019 14:46:01
 
METAR
KAWM 
29nm E 
111953Z AUTO 35004KT 10SM CLR 09/M01 A3050 RMK AO2 SLP332 T00941011
KUTA 
35nm SE 
112035Z AUTO 13003KT 10SM 08/00 A3053 RMK AO2 TSNO
KM19 
35nm NW 
111956Z AUTO 16007KT 10SM CLR 09/M03 A3051 RMK AO2 SLP332 T00941033
KMEM 
42nm E 
111954Z 33003KT 10SM CLR 11/M04 A3050 RMK AO2 SLP330 T01061044
KJBR 
44nm N 
111953Z AUTO VRB03KT 10SM CLR 09/M03 A3051 RMK AO2 SLP332 T00941033
KSRC 
45nm W 
111956Z AUTO VRB05KT 10SM CLR 11/M04 A3051 RMK AO2 SLPNO T01111039
KSGT 
48nm SW 
111956Z AUTO 00000KT 10SM CLR 09/M04 A3052 RMK AO2 SLP339 T00941044
KNQA 
49nm E 
111950Z 29003KT 10SM CLR 10/M05 A3050
TAF
KMEM 
42nm E 
111720Z 1118/1224 20004KT P6SM SKC FM120100 14003KT P6SM SKC FM121500 13004KT P6SM SCT250
KJBR 
44nm N 
111720Z 1118/1218 21007KT P6SM SKC FM120100 VRB02KT P6SM SKC FM121300 11004KT P6SM SKC
NOTAMs
Click for the latest NOTAMs
NOTAMs are issued by the DoD/FAA and will open in a separate window not controlled by AirNav.

 

 
 

FBO, Fuel Providers, and Aircraft Ground Support

  
 Business Name 
 
 Contact 
 
 Services / Description 
 
Fuel Prices
 
Comments
  
Delta Regional Airport 870-208-6607
no information available

If you are affiliated with Delta Regional Airport and would like to show here your services, contact info, web link, logo, and more, click here
100LL
SS $3.99 
 Updated 17-Aug-2019
 
   5 read write
SS=Self service
Update Fuel Prices
 

Would you like to see your business listed on this page?

 If your business provides an interesting product or service to pilots, flight crews, aircraft, or users of the Delta Regional Airport, you should consider listing it here.  To start the listing process, click on the button below
 
Add a business
 

Other Pages about Delta Regional Airport

Update a link
 
Copyright © AirNav, LLC. All rights reserved. Privacy Policy  Contact